Time;durP1;ratioP1;P1;durP2;ratioP2;P2;SDS_P1;SDS_P2;PMS_P1;PMS_P2;Temp;Humidity;BMP_temperature;BMP_pressure;BME280_temperature;BME280_humidity;BME280_pressure;Samples;Min_cycle;Max_cycle;Signal;HPM_P1;HPM_P2
2024/03/12 00:01:26;;;;;;;3.40;1.90;;;;;;;;;;5047634;28;20501;-58
2024/03/12 00:03:56;;;;;;;4.30;2.28;;;;;;;;;;5041132;28;20048;-56
2024/03/12 00:06:23;;;;;;;4.30;2.03;;;;;;;;;;5051098;28;20078;-57
2024/03/12 00:08:50;;;;;;;3.10;1.80;;;;;;;;;;5048572;28;20059;-58
2024/03/12 00:11:16;;;;;;;3.80;1.90;;;;;;;;;;5054392;28;20067;-58
2024/03/12 00:13:43;;;;;;;3.75;1.98;;;;;;;;;;5055120;28;20048;-59
2024/03/12 00:16:09;;;;;;;3.80;2.00;;;;;;;;;;5046985;28;20068;-58
2024/03/12 00:18:37;;;;;;;3.35;1.85;;;;;;;;;;5048630;28;20044;-57
2024/03/12 00:21:06;;;;;;;3.33;1.80;;;;;;;;;;5055448;28;20053;-59
2024/03/12 00:23:34;;;;;;;3.47;1.90;;;;;;;;;;5039010;28;20123;-60
2024/03/12 00:26:02;;;;;;;2.95;1.70;;;;;;;;;;5049576;28;20289;-55
2024/03/12 00:28:31;;;;;;;4.28;1.80;;;;;;;;;;5046373;28;20060;-59
2024/03/12 00:30:59;;;;;;;3.05;1.90;;;;;;;;;;5044279;28;20063;-59
2024/03/12 00:33:26;;;;;;;3.63;1.80;;;;;;;;;;5054543;28;20055;-60
2024/03/12 00:35:52;;;;;;;2.83;1.48;;;;;;;;;;5054983;28;20049;-58
2024/03/12 00:38:21;;;;;;;3.13;1.73;;;;;;;;;;5055037;28;20504;-58
2024/03/12 00:40:50;;;;;;;4.32;1.85;;;;;;;;;;5055070;28;20493;-56
2024/03/12 00:43:17;;;;;;;4.35;2.00;;;;;;;;;;5054726;28;20041;-55
2024/03/12 00:45:44;;;;;;;3.30;2.13;;;;;;;;;;5050383;28;20055;-58
2024/03/12 00:48:13;;;;;;;4.53;2.10;;;;;;;;;;5054777;28;20060;-58
2024/03/12 00:50:42;;;;;;;4.75;2.58;;;;;;;;;;5054721;28;20080;-59
2024/03/12 00:53:11;;;;;;;4.85;2.17;;;;;;;;;;5045612;28;20064;-58
2024/03/12 00:55:40;;;;;;;3.88;2.30;;;;;;;;;;5049846;28;20077;-58
2024/03/12 00:58:10;;;;;;;4.95;2.58;;;;;;;;;;5050795;28;20044;-59
2024/03/12 01:00:39;;;;;;;5.78;2.30;;;;;;;;;;5045985;28;20056;-59
2024/03/12 01:03:08;;;;;;;6.05;2.40;;;;;;;;;;5045932;28;20052;-58
2024/03/12 01:05:36;;;;;;;3.95;2.30;;;;;;;;;;5054511;28;20115;-61
2024/03/12 01:08:05;;;;;;;3.88;2.40;;;;;;;;;;5054084;28;20049;-57
2024/03/12 01:10:33;;;;;;;5.50;2.35;;;;;;;;;;5050828;28;20103;-58
2024/03/12 01:13:05;;;;;;;4.57;2.40;;;;;;;;;;5042416;28;20053;-62
2024/03/12 01:15:32;;;;;;;5.03;2.60;;;;;;;;;;5045633;28;20048;-59
2024/03/12 01:17:59;;;;;;;4.65;2.33;;;;;;;;;;5047054;28;20104;-58
2024/03/12 01:20:26;;;;;;;4.25;2.60;;;;;;;;;;5053793;28;20056;-57
2024/03/12 01:22:54;;;;;;;4.53;2.22;;;;;;;;;;5053640;28;20045;-60
2024/03/12 01:25:22;;;;;;;5.78;2.58;;;;;;;;;;5045728;28;20076;-59
2024/03/12 01:27:52;;;;;;;4.63;2.50;;;;;;;;;;5053369;28;20071;-60
2024/03/12 01:30:26;;;;;;;4.70;2.95;;;;;;;;;;5053474;28;20103;-60
2024/03/12 01:32:54;;;;;;;6.43;2.83;;;;;;;;;;5053599;28;20053;-60
2024/03/12 01:35:24;;;;;;;4.25;2.30;;;;;;;;;;5045464;28;20048;-58
2024/03/12 01:37:51;;;;;;;5.45;2.70;;;;;;;;;;5053545;28;20126;-60
2024/03/12 01:40:22;;;;;;;4.65;2.83;;;;;;;;;;5053321;28;20064;-60
2024/03/12 01:42:50;;;;;;;3.92;2.20;;;;;;;;;;5053528;28;20150;-57
2024/03/12 01:45:18;;;;;;;3.97;2.35;;;;;;;;;;5053418;28;20049;-58
2024/03/12 01:47:47;;;;;;;4.20;2.50;;;;;;;;;;5052710;28;20048;-57
2024/03/12 01:50:17;;;;;;;4.45;2.65;;;;;;;;;;5044404;28;20512;-58
2024/03/12 01:52:44;;;;;;;4.60;2.40;;;;;;;;;;5038372;28;20075;-58
2024/03/12 01:55:11;;;;;;;4.93;2.70;;;;;;;;;;5052960;28;20060;-59
2024/03/12 01:57:41;;;;;;;3.80;2.35;;;;;;;;;;5048936;28;20041;-59
2024/03/12 02:00:13;;;;;;;3.58;2.10;;;;;;;;;;5053123;28;20085;-61
2024/03/12 02:02:41;;;;;;;3.75;2.30;;;;;;;;;;5046151;28;20072;-57
2024/03/12 02:05:11;;;;;;;4.10;2.40;;;;;;;;;;5045036;28;20092;-58
2024/03/12 02:07:39;;;;;;;3.90;2.13;;;;;;;;;;5036821;28;20069;-56
2024/03/12 02:10:08;;;;;;;4.75;2.60;;;;;;;;;;5044802;28;20052;-58
2024/03/12 02:12:35;;;;;;;3.60;2.45;;;;;;;;;;5052688;28;20049;-58
2024/03/12 02:15:03;;;;;;;4.22;2.30;;;;;;;;;;5052926;28;20065;-58
2024/03/12 02:17:30;;;;;;;3.83;2.15;;;;;;;;;;5052549;28;20061;-55
2024/03/12 02:19:58;;;;;;;3.70;2.35;;;;;;;;;;5053014;28;20084;-59
2024/03/12 02:22:26;;;;;;;3.67;2.22;;;;;;;;;;5053174;28;20087;-56
2024/03/12 02:24:54;;;;;;;4.25;2.33;;;;;;;;;;5053273;28;20091;-59
2024/03/12 02:27:21;;;;;;;4.70;2.22;;;;;;;;;;5038644;28;20450;-59
2024/03/12 02:29:48;;;;;;;4.68;2.67;;;;;;;;;;5047469;28;20485;-57
2024/03/12 02:32:15;;;;;;;4.20;2.60;;;;;;;;;;5050247;28;20101;-56
2024/03/12 02:34:42;;;;;;;3.47;2.28;;;;;;;;;;5052639;28;20049;-57
2024/03/12 02:37:09;;;;;;;5.40;2.40;;;;;;;;;;5044243;28;20052;-59
2024/03/12 02:39:36;;;;;;;3.55;2.08;;;;;;;;;;5049973;28;20053;-59
2024/03/12 02:42:05;;;;;;;3.63;2.28;;;;;;;;;;5052593;28;20524;-59
2024/03/12 02:44:31;;;;;;;3.58;2.10;;;;;;;;;;5044073;28;20095;-56
2024/03/12 02:46:58;;;;;;;5.15;2.40;;;;;;;;;;5052516;28;20056;-59
2024/03/12 02:49:25;;;;;;;4.55;2.65;;;;;;;;;;5041873;28;20045;-59
2024/03/12 02:51:52;;;;;;;3.90;2.45;;;;;;;;;;5046642;28;20388;-57
2024/03/12 02:54:20;;;;;;;3.90;2.40;;;;;;;;;;5051780;28;20057;-59
2024/03/12 02:56:47;;;;;;;4.47;2.67;;;;;;;;;;5049745;28;20049;-58
2024/03/12 02:59:16;;;;;;;4.78;2.40;;;;;;;;;;5051736;28;20045;-57
2024/03/12 03:01:43;;;;;;;4.57;2.40;;;;;;;;;;5048833;28;20488;-59
2024/03/12 03:04:10;;;;;;;3.88;2.80;;;;;;;;;;5051662;28;20055;-59
2024/03/12 03:06:37;;;;;;;4.97;2.85;;;;;;;;;;5051595;28;20049;-57
2024/03/12 03:09:05;;;;;;;4.60;2.80;;;;;;;;;;5051461;28;20389;-58
2024/03/12 03:11:32;;;;;;;4.22;2.20;;;;;;;;;;5051634;28;20055;-57
2024/03/12 03:14:00;;;;;;;4.75;2.95;;;;;;;;;;5051623;28;20081;-57
2024/03/12 03:16:28;;;;;;;4.93;2.90;;;;;;;;;;5051349;28;20053;-52
2024/03/12 03:18:56;;;;;;;4.50;2.83;;;;;;;;;;5051232;28;20120;-57
2024/03/12 03:21:24;;;;;;;4.93;2.88;;;;;;;;;;5050380;28;20163;-54
2024/03/12 03:23:51;;;;;;;4.57;2.72;;;;;;;;;;5051542;28;20067;-55
2024/03/12 03:26:18;;;;;;;4.50;2.90;;;;;;;;;;5051038;28;20053;-57
2024/03/12 03:28:44;;;;;;;4.80;2.90;;;;;;;;;;5051464;28;20060;-53
2024/03/12 03:31:12;;;;;;;4.50;2.45;;;;;;;;;;5051453;28;20052;-55
2024/03/12 03:33:40;;;;;;;4.93;2.53;;;;;;;;;;5051331;28;20191;-56
2024/03/12 03:36:07;;;;;;;5.72;2.95;;;;;;;;;;5051238;28;20076;-55
2024/03/12 03:38:39;;;;;;;5.00;3.25;;;;;;;;;;5050185;28;20135;-54
2024/03/12 03:41:07;;;;;;;5.10;3.13;;;;;;;;;;5050756;28;20140;-54
2024/03/12 03:43:34;;;;;;;5.45;3.25;;;;;;;;;;5051167;28;20045;-56
2024/03/12 03:46:01;;;;;;;4.97;2.78;;;;;;;;;;5051046;28;20053;-57
2024/03/12 03:48:28;;;;;;;4.25;3.03;;;;;;;;;;5050984;28;20131;-55
2024/03/12 03:50:56;;;;;;;5.15;3.35;;;;;;;;;;5050745;28;20081;-53
2024/03/12 03:53:23;;;;;;;5.45;3.30;;;;;;;;;;5051303;28;20052;-58
2024/03/12 03:55:50;;;;;;;6.90;3.50;;;;;;;;;;5050828;28;20401;-58
2024/03/12 03:58:18;;;;;;;4.78;3.17;;;;;;;;;;5051139;28;20098;-56
2024/03/12 04:00:44;;;;;;;4.78;3.38;;;;;;;;;;5050581;28;20049;-55
2024/03/12 04:03:11;;;;;;;6.07;3.00;;;;;;;;;;5050536;28;20053;-57
2024/03/12 04:05:38;;;;;;;4.80;2.92;;;;;;;;;;5050344;28;20057;-56
2024/03/12 04:08:07;;;;;;;5.78;3.25;;;;;;;;;;5050844;28;20115;-57
2024/03/12 04:10:34;;;;;;;4.88;3.40;;;;;;;;;;5050703;28;20496;-57
2024/03/12 04:13:02;;;;;;;4.95;2.92;;;;;;;;;;5050880;28;20049;-57
2024/03/12 04:15:29;;;;;;;5.40;2.83;;;;;;;;;;5051213;28;20493;-57
2024/03/12 04:17:56;;;;;;;5.40;3.17;;;;;;;;;;5050378;28;20106;-54
2024/03/12 04:20:23;;;;;;;5.25;3.00;;;;;;;;;;5050633;28;20053;-54
2024/03/12 04:22:50;;;;;;;5.70;3.30;;;;;;;;;;5042843;28;20049;-56
2024/03/12 04:25:19;;;;;;;4.78;3.00;;;;;;;;;;5046290;28;20544;-56
2024/03/12 04:27:45;;;;;;;4.72;2.88;;;;;;;;;;5050172;28;20041;-52
2024/03/12 04:30:13;;;;;;;6.47;3.22;;;;;;;;;;5050624;28;20080;-56
2024/03/12 04:32:41;;;;;;;4.68;3.22;;;;;;;;;;5047556;28;20177;-56
2024/03/12 04:35:09;;;;;;;4.50;3.10;;;;;;;;;;5050349;28;20095;-54
2024/03/12 04:37:36;;;;;;;5.00;3.00;;;;;;;;;;5049163;28;20083;-57
2024/03/12 04:40:06;;;;;;;5.20;3.10;;;;;;;;;;5047850;28;20127;-55
2024/03/12 04:42:35;;;;;;;4.65;3.35;;;;;;;;;;5050369;28;20128;-55
2024/03/12 04:45:04;;;;;;;6.82;3.30;;;;;;;;;;5050232;28;20049;-57
2024/03/12 04:47:32;;;;;;;5.63;3.40;;;;;;;;;;5050155;28;20052;-54
2024/03/12 04:49:59;;;;;;;7.05;3.80;;;;;;;;;;5050322;28;20472;-57
2024/03/12 04:52:25;;;;;;;5.75;3.50;;;;;;;;;;5053959;28;20044;-53
2024/03/12 04:54:52;;;;;;;4.57;3.03;;;;;;;;;;5053977;28;20057;-56
2024/03/12 04:57:20;;;;;;;6.07;3.60;;;;;;;;;;5053830;28;20052;-55
2024/03/12 04:59:48;;;;;;;5.22;3.67;;;;;;;;;;5054562;28;20095;-61
2024/03/12 05:02:16;;;;;;;5.70;3.38;;;;;;;;;;5054468;28;20504;-57
2024/03/12 05:04:43;;;;;;;6.20;3.08;;;;;;;;;;5053768;28;20045;-56
2024/03/12 05:07:11;;;;;;;4.85;3.33;;;;;;;;;;5053607;28;20045;-55
2024/03/12 05:09:38;;;;;;;5.38;3.55;;;;;;;;;;5054264;28;20045;-56
2024/03/12 05:12:06;;;;;;;5.22;3.55;;;;;;;;;;5053923;28;20045;-56
2024/03/12 05:14:32;;;;;;;5.93;3.80;;;;;;;;;;5053642;28;20420;-55
2024/03/12 05:17:01;;;;;;;5.80;3.42;;;;;;;;;;5053240;28;20057;-54
2024/03/12 05:19:28;;;;;;;6.25;3.60;;;;;;;;;;5053656;28;20056;-54
2024/03/12 05:21:55;;;;;;;6.38;4.28;;;;;;;;;;5053562;28;20091;-54
2024/03/12 05:24:22;;;;;;;5.55;3.58;;;;;;;;;;5053538;28;20199;-56
2024/03/12 05:26:49;;;;;;;5.75;3.47;;;;;;;;;;5053007;28;20049;-56
2024/03/12 05:29:17;;;;;;;6.28;4.00;;;;;;;;;;5053733;28;20041;-57
2024/03/12 05:31:44;;;;;;;5.72;3.63;;;;;;;;;;5053405;28;20491;-53
2024/03/12 05:34:16;;;;;;;6.05;3.55;;;;;;;;;;5053645;28;20068;-56
2024/03/12 05:36:47;;;;;;;4.93;3.65;;;;;;;;;;5053632;28;20131;-57
2024/03/12 05:39:19;;;;;;;7.90;4.03;;;;;;;;;;5053047;28;20526;-51
2024/03/12 05:48:07;;;;;;;5.72;3.60;;;;;;;;;;5050029;28;20080;-53
2024/03/12 05:50:11;;;;;;;6.68;3.80;;;;;;;;;;5049528;28;20060;-56
2024/03/12 05:52:39;;;;;;;7.28;3.60;;;;;;;;;;5045208;28;20136;-54
2024/03/12 05:55:07;;;;;;;6.40;4.35;;;;;;;;;;5052744;28;20084;-57
2024/03/12 05:57:34;;;;;;;6.53;3.90;;;;;;;;;;5052251;28;20059;-58
2024/03/12 06:00:03;;;;;;;6.07;3.90;;;;;;;;;;5052696;28;20040;-56
2024/03/12 06:02:30;;;;;;;5.95;3.88;;;;;;;;;;5048251;28;20048;-56
2024/03/12 06:04:57;;;;;;;6.82;4.60;;;;;;;;;;5047726;28;20056;-55
2024/03/12 06:07:25;;;;;;;6.07;3.92;;;;;;;;;;5052479;28;20717;-53
2024/03/12 06:09:53;;;;;;;6.95;4.28;;;;;;;;;;5053094;28;20049;-54
2024/03/12 06:12:19;;;;;;;7.28;4.72;;;;;;;;;;5053033;28;20496;-55
2024/03/12 06:14:46;;;;;;;6.60;4.20;;;;;;;;;;5052911;28;20049;-58
2024/03/12 06:17:13;;;;;;;6.53;4.55;;;;;;;;;;5051969;28;20131;-56
2024/03/12 06:19:41;;;;;;;6.38;4.40;;;;;;;;;;5052867;28;20048;-55
2024/03/12 06:22:08;;;;;;;5.85;4.45;;;;;;;;;;5052739;28;20088;-55
2024/03/12 06:24:36;;;;;;;5.80;4.30;;;;;;;;;;5052786;28;20507;-59
2024/03/12 06:27:03;;;;;;;7.28;4.55;;;;;;;;;;5051881;28;20472;-59
2024/03/12 06:29:31;;;;;;;5.90;4.07;;;;;;;;;;5052610;28;20040;-56
2024/03/12 06:31:58;;;;;;;5.65;4.15;;;;;;;;;;5049058;28;20469;-53
2024/03/12 06:34:27;;;;;;;6.60;4.22;;;;;;;;;;5050903;28;20056;-51
2024/03/12 06:36:57;;;;;;;7.00;4.28;;;;;;;;;;5051941;28;20076;-57
2024/03/12 06:39:30;;;;;;;6.97;4.22;;;;;;;;;;5052274;28;20134;-55
2024/03/12 06:42:00;;;;;;;6.00;4.20;;;;;;;;;;5052655;28;20087;-56
2024/03/12 06:44:27;;;;;;;6.10;4.20;;;;;;;;;;5052170;28;20420;-57
2024/03/12 06:46:54;;;;;;;6.55;4.38;;;;;;;;;;5051728;28;20285;-58
2024/03/12 06:49:21;;;;;;;6.22;4.10;;;;;;;;;;5052103;28;20045;-55
2024/03/12 06:51:48;;;;;;;6.90;3.85;;;;;;;;;;5052442;28;20041;-54
2024/03/12 06:54:15;;;;;;;6.10;3.72;;;;;;;;;;5051818;28;20041;-55
2024/03/12 06:56:42;;;;;;;5.45;3.78;;;;;;;;;;5051768;28;20051;-55
2024/03/12 06:59:12;;;;;;;7.82;4.07;;;;;;;;;;5051711;28;20051;-55
2024/03/12 07:01:41;;;;;;;7.68;3.85;;;;;;;;;;5044196;28;20080;-57
2024/03/12 07:04:09;;;;;;;7.32;4.25;;;;;;;;;;5051828;28;20057;-55
2024/03/12 07:06:37;;;;;;;6.07;3.72;;;;;;;;;;5052448;28;20126;-56
2024/03/12 07:09:09;;;;;;;5.75;3.80;;;;;;;;;;5051771;28;20045;-52
2024/03/12 07:11:39;;;;;;;5.47;3.38;;;;;;;;;;5051888;28;20053;-56
2024/03/12 07:14:12;;;;;;;7.25;3.40;;;;;;;;;;5052311;28;20051;-58
2024/03/12 07:16:44;;;;;;;6.15;3.58;;;;;;;;;;5045153;28;20605;-53
2024/03/12 07:19:11;;;;;;;6.45;3.72;;;;;;;;;;5051323;28;20049;-50
2024/03/12 07:21:39;;;;;;;6.63;3.97;;;;;;;;;;5043583;28;20095;-52
2024/03/12 07:24:07;;;;;;;6.28;3.45;;;;;;;;;;5051568;28;20104;-57
2024/03/12 07:26:35;;;;;;;5.65;2.85;;;;;;;;;;5044284;28;20500;-55
2024/03/12 07:29:06;;;;;;;4.65;3.33;;;;;;;;;;5049689;28;20067;-51
2024/03/12 07:31:34;;;;;;;4.88;3.15;;;;;;;;;;5047456;28;20045;-53
2024/03/12 07:34:05;;;;;;;5.30;3.38;;;;;;;;;;5040410;28;20049;-53
2024/03/12 07:36:33;;;;;;;5.57;3.00;;;;;;;;;;5048380;28;20049;-57
2024/03/12 07:38:59;;;;;;;4.90;3.20;;;;;;;;;;5051385;28;20051;-56
2024/03/12 07:41:27;;;;;;;10.60;3.70;;;;;;;;;;5048299;28;20053;-56
2024/03/12 07:43:54;;;;;;;5.13;3.08;;;;;;;;;;5038430;28;20081;-56
2024/03/12 07:46:21;;;;;;;5.60;2.88;;;;;;;;;;5038971;28;20053;-55
2024/03/12 07:48:48;;;;;;;6.38;2.90;;;;;;;;;;5041888;28;20064;-56
2024/03/12 07:51:16;;;;;;;5.32;3.13;;;;;;;;;;5038972;28;20160;-55
2024/03/12 07:53:45;;;;;;;4.45;2.60;;;;;;;;;;5051060;28;20049;-55
2024/03/12 07:56:14;;;;;;;5.43;2.63;;;;;;;;;;5051093;28;20419;-55
2024/03/12 07:58:46;;;;;;;5.35;2.72;;;;;;;;;;5051527;28;20049;-57
2024/03/12 08:01:14;;;;;;;3.92;2.53;;;;;;;;;;5051032;28;20508;-57
2024/03/12 08:03:41;;;;;;;4.25;2.38;;;;;;;;;;5050742;28;20049;-55
2024/03/12 08:06:08;;;;;;;5.00;2.63;;;;;;;;;;5051078;28;20057;-54
2024/03/12 08:08:36;;;;;;;5.25;2.40;;;;;;;;;;5048654;28;20053;-53
2024/03/12 08:11:04;;;;;;;5.93;2.60;;;;;;;;;;5046864;28;20055;-53
2024/03/12 08:13:31;;;;;;;4.13;2.20;;;;;;;;;;5050903;28;20056;-54
2024/03/12 08:15:59;;;;;;;5.60;2.33;;;;;;;;;;5048592;28;20143;-55
2024/03/12 08:18:26;;;;;;;4.65;2.63;;;;;;;;;;5051335;28;20076;-56
2024/03/12 08:20:53;;;;;;;3.88;2.17;;;;;;;;;;5041762;28;20048;-57
2024/03/12 08:23:20;;;;;;;3.83;2.30;;;;;;;;;;5030159;28;20049;-57
2024/03/12 08:25:48;;;;;;;5.38;2.70;;;;;;;;;;5046273;28;20152;-58
2024/03/12 08:28:16;;;;;;;5.63;2.42;;;;;;;;;;5044900;28;20076;-57
2024/03/12 08:30:46;;;;;;;6.85;2.63;;;;;;;;;;5038750;28;20596;-56
2024/03/12 08:33:13;;;;;;;4.35;2.10;;;;;;;;;;5046346;28;20037;-57
2024/03/12 08:35:41;;;;;;;3.60;2.03;;;;;;;;;;5047566;28;20049;-57
2024/03/12 08:38:09;;;;;;;4.63;2.47;;;;;;;;;;5047809;28;20053;-58
2024/03/12 08:40:36;;;;;;;4.13;2.50;;;;;;;;;;5046621;28;20044;-59
2024/03/12 08:43:04;;;;;;;5.22;3.20;;;;;;;;;;5044421;28;20044;-59
2024/03/12 08:45:31;;;;;;;4.63;2.75;;;;;;;;;;5052688;28;21352;-57
2024/03/12 08:47:59;;;;;;;5.40;2.53;;;;;;;;;;5052105;28;20049;-58
2024/03/12 08:50:26;;;;;;;6.25;2.58;;;;;;;;;;5052725;28;20126;-58
2024/03/12 08:52:53;;;;;;;4.55;2.47;;;;;;;;;;5049799;28;20049;-56
2024/03/12 08:55:20;;;;;;;4.80;2.42;;;;;;;;;;5049938;28;20111;-58
2024/03/12 08:57:47;;;;;;;6.03;2.53;;;;;;;;;;5052538;28;20049;-58
2024/03/12 09:00:16;;;;;;;5.25;2.53;;;;;;;;;;5042125;28;20057;-57
2024/03/12 09:02:43;;;;;;;6.63;2.60;;;;;;;;;;5042011;28;20428;-55
2024/03/12 09:05:09;;;;;;;5.07;2.22;;;;;;;;;;5051697;28;20393;-55
2024/03/12 09:07:37;;;;;;;3.92;2.15;;;;;;;;;;5048337;28;20067;-57
2024/03/12 09:10:05;;;;;;;3.88;2.10;;;;;;;;;;5052143;28;20077;-59
2024/03/12 09:12:32;;;;;;;3.55;2.17;;;;;;;;;;5048485;28;20083;-56
2024/03/12 09:14:59;;;;;;;4.72;2.80;;;;;;;;;;5049388;28;20053;-56
2024/03/12 09:17:28;;;;;;;4.60;2.55;;;;;;;;;;5052399;28;20455;-55
2024/03/12 09:19:56;;;;;;;4.88;2.30;;;;;;;;;;5052235;28;20076;-53
2024/03/12 09:22:24;;;;;;;4.85;2.08;;;;;;;;;;5044131;28;20126;-56
2024/03/12 09:24:51;;;;;;;6.18;2.85;;;;;;;;;;5048939;28;20049;-55
2024/03/12 09:27:18;;;;;;;4.07;2.58;;;;;;;;;;5043584;28;20513;-55
2024/03/12 09:29:44;;;;;;;4.32;2.20;;;;;;;;;;5041063;28;20049;-61
2024/03/12 09:32:11;;;;;;;4.47;2.33;;;;;;;;;;5037825;28;20061;-61
2024/03/12 09:34:40;;;;;;;4.28;2.40;;;;;;;;;;5033192;28;20451;-58
2024/03/12 09:37:07;;;;;;;5.90;2.70;;;;;;;;;;5036097;28;20056;-59
2024/03/12 09:39:36;;;;;;;4.85;2.22;;;;;;;;;;5051400;28;20125;-62
2024/03/12 09:42:07;;;;;;;4.50;2.30;;;;;;;;;;5051914;28;20057;-63
2024/03/12 09:44:36;;;;;;;6.85;2.63;;;;;;;;;;5051305;28;20045;-54
2024/03/12 09:47:05;;;;;;;4.22;2.10;;;;;;;;;;5051272;28;20072;-57
2024/03/12 09:49:32;;;;;;;4.50;2.13;;;;;;;;;;5051588;28;20056;-57
2024/03/12 09:52:01;;;;;;;6.97;2.42;;;;;;;;;;5051882;28;20041;-55
2024/03/12 09:54:28;;;;;;;3.38;1.77;;;;;;;;;;5051501;28;20496;-55
2024/03/12 09:56:56;;;;;;;5.03;2.47;;;;;;;;;;5051306;28;20511;-55
2024/03/12 09:59:24;;;;;;;4.28;2.15;;;;;;;;;;5047797;28;20052;-55
2024/03/12 10:01:51;;;;;;;3.97;2.15;;;;;;;;;;5051489;28;20081;-57
2024/03/12 10:04:18;;;;;;;4.68;2.78;;;;;;;;;;5051220;28;20596;-56
2024/03/12 10:06:45;;;;;;;4.07;1.80;;;;;;;;;;5047750;28;20115;-55
2024/03/12 10:09:17;;;;;;;3.63;1.60;;;;;;;;;;5048373;28;20053;-58
2024/03/12 10:11:45;;;;;;;2.90;1.80;;;;;;;;;;5050697;28;20123;-54
2024/03/12 10:14:13;;;;;;;4.63;1.70;;;;;;;;;;5051043;28;20134;-55
2024/03/12 10:16:40;;;;;;;4.15;1.40;;;;;;;;;;5046711;28;20044;-58
2024/03/12 10:19:09;;;;;;;3.17;1.70;;;;;;;;;;5046488;28;20049;-55
2024/03/12 10:21:36;;;;;;;3.47;1.83;;;;;;;;;;5046181;28;20048;-58
2024/03/12 10:24:15;;;;;;;3.03;1.83;;;;;;;;;;5044687;28;20056;-60
2024/03/12 10:26:42;;;;;;;4.47;2.03;;;;;;;;;;5042575;28;20041;-58
2024/03/12 10:29:10;;;;;;;6.55;2.38;;;;;;;;;;5050397;28;20400;-60
2024/03/12 10:31:39;;;;;;;5.70;2.85;;;;;;;;;;5051029;28;20076;-55
2024/03/12 10:34:13;;;;;;;5.22;2.17;;;;;;;;;;5051597;28;20512;-57
2024/03/12 10:36:42;;;;;;;5.18;2.80;;;;;;;;;;5050925;28;20052;-57
2024/03/12 10:39:12;;;;;;;4.03;2.40;;;;;;;;;;5051075;28;20049;-56
2024/03/12 10:41:43;;;;;;;4.33;2.33;;;;;;;;;;5043510;28;20044;-55
2024/03/12 10:44:11;;;;;;;4.35;2.30;;;;;;;;;;5040559;28;20546;-59
2024/03/12 10:46:41;;;;;;;3.40;2.30;;;;;;;;;;5048532;28;20083;-58
2024/03/12 10:49:10;;;;;;;3.95;2.28;;;;;;;;;;5050717;28;20048;-58
2024/03/12 10:51:41;;;;;;;4.53;2.50;;;;;;;;;;5042997;28;20049;-58
2024/03/12 10:54:13;;;;;;;4.43;2.45;;;;;;;;;;5038501;28;20137;-59
2024/03/12 10:56:42;;;;;;;5.68;2.50;;;;;;;;;;5046228;28;20128;-57
2024/03/12 10:59:10;;;;;;;4.93;2.50;;;;;;;;;;5051065;28;20049;-56
2024/03/12 11:01:38;;;;;;;4.43;2.35;;;;;;;;;;5050974;28;20416;-59
2024/03/12 11:04:06;;;;;;;7.63;3.15;;;;;;;;;;5050352;28;20055;-56
2024/03/12 11:06:36;;;;;;;4.55;2.90;;;;;;;;;;5046399;28;20076;-55
2024/03/12 11:09:04;;;;;;;3.63;2.30;;;;;;;;;;5048522;28;20080;-59
2024/03/12 11:11:30;;;;;;;3.88;2.47;;;;;;;;;;5050348;28;20080;-55
2024/03/12 11:14:01;;;;;;;2.95;2.08;;;;;;;;;;5050375;28;20550;-55
2024/03/12 11:16:32;;;;;;;4.35;2.08;;;;;;;;;;5049841;28;20048;-56
2024/03/12 11:19:16;;;;;;;3.45;2.20;;;;;;;;;;5049839;28;20055;-54
2024/03/12 11:21:43;;;;;;;4.45;2.60;;;;;;;;;;5035647;28;20057;-56
2024/03/12 11:24:10;;;;;;;3.92;2.00;;;;;;;;;;5048695;28;20478;-55
2024/03/12 11:26:41;;;;;;;4.00;2.13;;;;;;;;;;5049028;28;20064;-55
2024/03/12 11:29:11;;;;;;;3.30;1.90;;;;;;;;;;5048417;28;20679;-58
2024/03/12 11:31:40;;;;;;;4.00;2.10;;;;;;;;;;5038983;28;20044;-58
2024/03/12 11:34:08;;;;;;;3.47;1.98;;;;;;;;;;5049049;28;20052;-57
2024/03/12 11:36:45;;;;;;;3.10;1.80;;;;;;;;;;5049493;28;20707;-56
2024/03/12 11:39:15;;;;;;;3.58;2.08;;;;;;;;;;5041929;28;20049;-53
2024/03/12 11:42:14;;;;;;;2.80;1.90;;;;;;;;;;5041824;28;20083;-52
2024/03/12 11:44:52;;;;;;;3.90;2.03;;;;;;;;;;5045758;28;20059;-55
2024/03/12 11:47:34;;;;;;;3.65;2.10;;;;;;;;;;5048445;28;20069;-56
2024/03/12 11:50:02;;;;;;;4.70;2.50;;;;;;;;;;5043191;28;20562;-55
2024/03/12 11:52:31;;;;;;;3.75;2.10;;;;;;;;;;5045317;28;20048;-59
2024/03/12 11:54:59;;;;;;;4.15;2.40;;;;;;;;;;5048896;28;20128;-55
2024/03/12 11:57:26;;;;;;;3.92;2.55;;;;;;;;;;5049169;28;20060;-55
2024/03/12 11:59:55;;;;;;;5.63;2.75;;;;;;;;;;5048856;28;20040;-58
2024/03/12 12:02:23;;;;;;;2.97;1.85;;;;;;;;;;5049287;28;20103;-53
2024/03/12 12:04:52;;;;;;;2.90;1.95;;;;;;;;;;5049284;28;20080;-56
2024/03/12 12:07:20;;;;;;;3.75;2.03;;;;;;;;;;5049096;28;20117;-55
2024/03/12 12:09:47;;;;;;;3.90;2.15;;;;;;;;;;5049510;28;20049;-57
2024/03/12 12:12:15;;;;;;;3.83;1.75;;;;;;;;;;5048847;28;20041;-57
2024/03/12 12:14:43;;;;;;;3.55;1.85;;;;;;;;;;5044316;28;20107;-52
2024/03/12 12:17:14;;;;;;;2.78;1.80;;;;;;;;;;5043292;28;20548;-54
2024/03/12 12:19:41;;;;;;;4.22;1.80;;;;;;;;;;5038333;28;20507;-55
2024/03/12 12:22:08;;;;;;;3.00;1.60;;;;;;;;;;5044469;28;20079;-57
2024/03/12 12:24:39;;;;;;;3.70;2.00;;;;;;;;;;5048924;28;20041;-57
2024/03/12 12:27:06;;;;;;;2.65;1.70;;;;;;;;;;5046613;28;20048;-56
2024/03/12 12:29:35;;;;;;;3.72;1.77;;;;;;;;;;5047485;28;20061;-57
2024/03/12 12:32:02;;;;;;;3.50;2.00;;;;;;;;;;5047976;28;20142;-58
2024/03/12 12:34:32;;;;;;;2.85;1.67;;;;;;;;;;5045464;28;20053;-59
2024/03/12 12:37:00;;;;;;;3.07;1.73;;;;;;;;;;5045094;28;20045;-56
2024/03/12 12:39:34;;;;;;;2.33;1.55;;;;;;;;;;5049184;28;20093;-59
2024/03/12 12:42:01;;;;;;;3.17;1.60;;;;;;;;;;5047953;28;20041;-54
2024/03/12 12:44:28;;;;;;;3.10;1.60;;;;;;;;;;5048889;28;20055;-52
2024/03/12 12:46:55;;;;;;;2.45;1.30;;;;;;;;;;5040558;28;20052;-59
2024/03/12 12:49:22;;;;;;;2.75;1.45;;;;;;;;;;5037752;28;20139;-54
2024/03/12 12:51:52;;;;;;;1.75;1.10;;;;;;;;;;5031135;28;20048;-58
2024/03/12 12:54:21;;;;;;;1.65;1.08;;;;;;;;;;5032980;28;20057;-56
2024/03/12 12:56:50;;;;;;;3.33;1.17;;;;;;;;;;5044234;28;20045;-55
2024/03/12 12:59:19;;;;;;;1.63;1.13;;;;;;;;;;5048951;28;20267;-56
2024/03/12 13:01:47;;;;;;;2.05;1.20;;;;;;;;;;5048682;28;20045;-57
2024/03/12 13:04:22;;;;;;;3.00;1.33;;;;;;;;;;5048661;28;20471;-54
2024/03/12 13:06:51;;;;;;;2.38;1.40;;;;;;;;;;5048627;28;20056;-55
2024/03/12 13:09:30;;;;;;;3.60;1.48;;;;;;;;;;5048806;28;20064;-56
2024/03/12 13:11:57;;;;;;;3.13;1.60;;;;;;;;;;5052203;28;20120;-56
2024/03/12 13:14:25;;;;;;;3.13;1.48;;;;;;;;;;5052512;28;20049;-57
2024/03/12 13:16:52;;;;;;;2.60;1.52;;;;;;;;;;5049487;28;20053;-58
2024/03/12 13:19:19;;;;;;;2.50;1.30;;;;;;;;;;5041196;28;20179;-57
2024/03/12 13:21:48;;;;;;;2.47;1.63;;;;;;;;;;5039000;28;20041;-58
2024/03/12 13:24:19;;;;;;;2.97;1.20;;;;;;;;;;5049245;28;20055;-58
2024/03/12 13:26:46;;;;;;;2.92;1.60;;;;;;;;;;5046311;28;20045;-56
2024/03/12 13:29:13;;;;;;;5.03;2.78;;;;;;;;;;5042929;28;20049;-57
2024/03/12 13:31:40;;;;;;;2.97;1.40;;;;;;;;;;5052015;28;20045;-57
2024/03/12 13:34:07;;;;;;;2.70;1.40;;;;;;;;;;5051674;28;20057;-57
2024/03/12 13:36:35;;;;;;;2.88;1.38;;;;;;;;;;5041567;28;20059;-55
2024/03/12 13:39:03;;;;;;;2.72;1.42;;;;;;;;;;5040074;28;20045;-56
2024/03/12 13:41:32;;;;;;;2.83;1.30;;;;;;;;;;5044186;28;20084;-56
2024/03/12 13:43:59;;;;;;;2.75;1.38;;;;;;;;;;5051907;28;20053;-57
2024/03/12 13:46:26;;;;;;;2.55;1.27;;;;;;;;;;5045025;28;20044;-58
2024/03/12 13:49:10;;;;;;;2.55;1.50;;;;;;;;;;5040612;28;20051;-55
2024/03/12 13:51:37;;;;;;;2.38;1.50;;;;;;;;;;5045582;28;20120;-56
2024/03/12 13:54:08;;;;;;;3.13;1.40;;;;;;;;;;5040654;28;20460;-57
2024/03/12 13:56:36;;;;;;;2.45;1.50;;;;;;;;;;5036025;28;20132;-56
2024/03/12 13:59:03;;;;;;;3.22;1.45;;;;;;;;;;5040493;28;20149;-53
2024/03/12 14:01:30;;;;;;;3.40;1.70;;;;;;;;;;5037327;28;20459;-56
2024/03/12 14:03:57;;;;;;;3.83;1.80;;;;;;;;;;5042062;28;20056;-55
2024/03/12 14:06:24;;;;;;;3.88;1.90;;;;;;;;;;5039762;28;20445;-57
2024/03/12 14:08:51;;;;;;;3.08;1.50;;;;;;;;;;5051592;28;20641;-55
2024/03/12 14:11:18;;;;;;;5.85;2.10;;;;;;;;;;5051131;28;20049;-56
2024/03/12 14:13:49;;;;;;;3.25;1.50;;;;;;;;;;5040996;28;20060;-56
2024/03/12 14:16:16;;;;;;;3.55;1.48;;;;;;;;;;5049003;28;20140;-57
2024/03/12 14:18:44;;;;;;;3.03;1.15;;;;;;;;;;5051189;28;20049;-56
2024/03/12 14:21:12;;;;;;;3.50;1.48;;;;;;;;;;5043096;28;20055;-58
2024/03/12 14:23:39;;;;;;;3.55;1.70;;;;;;;;;;5038327;28;20049;-56
2024/03/12 14:26:06;;;;;;;3.45;1.95;;;;;;;;;;5045106;28;20053;-55
2024/03/12 14:28:33;;;;;;;4.18;1.95;;;;;;;;;;5050352;28;20045;-58
2024/03/12 14:31:02;;;;;;;3.50;1.90;;;;;;;;;;5041871;28;20045;-59
2024/03/12 14:33:29;;;;;;;3.58;2.08;;;;;;;;;;5044419;28;20143;-57
2024/03/12 14:35:56;;;;;;;4.65;2.10;;;;;;;;;;5038307;28;20049;-54
2024/03/12 14:38:23;;;;;;;3.88;2.05;;;;;;;;;;5040170;28;20053;-54
2024/03/12 14:40:49;;;;;;;5.10;2.15;;;;;;;;;;5050996;28;20052;-58
2024/03/12 14:43:17;;;;;;;5.22;2.90;;;;;;;;;;5047917;28;20428;-56
2024/03/12 14:45:45;;;;;;;5.65;2.70;;;;;;;;;;5047659;28;20119;-55
2024/03/12 14:48:13;;;;;;;7.65;3.20;;;;;;;;;;5048031;28;20076;-57
2024/03/12 14:50:40;;;;;;;5.05;2.72;;;;;;;;;;5047180;28;20492;-56
2024/03/12 14:53:08;;;;;;;7.15;3.33;;;;;;;;;;5048025;28;20045;-56
2024/03/12 14:55:35;;;;;;;6.95;3.10;;;;;;;;;;5047728;28;20082;-57